Portada
METAR-TAF:

METAR-TAF

Aeroports :

Vijayawada, Índia

latitud: 16-31-44N, longitud: 80-47-45E, altitud: 25 m

Observació

L'informe es va fer fa 38 minuts, a les 13:00 UTC
Vent 3 kt del Sud
Temperatura 34°C
Humitat 53%
Pressió 1002 hPa
Visibilitat: 6000 m
Núvols disperses a una alçada de 2000 ft
Escasses núvols a una alçada de 3000 ft, Cumulonimbus.
Núvols disperses a una alçada de 10000 ft

METAR: VOBZ 031300Z 18003KT 6000 SCT020 FEW030CB SCT100 34/23 Q1002 NOSIG

Hora: 19:08 (13:38 UTC)

Pronòstic

L'informe es va fer fa 5 hores i 38 minuts, a les 08:00 UTC
Pronòstic vàlid del 03 a les 09 UTC al 03 a les 18 UTC
Vent 8 kt del Sud/Sud-Oest
Visibilitat: 6000 m
Núvols disperses a una alçada de 1500 ft
Núvols disperses a una alçada de 2500 ft
Temporalment
l' 03 a les 14 UTC al 03 a les 18 UTC
Escasses núvols a una alçada de 3000 ft, Cumulus congestus.
Cel ennuvolat a una alçada de 8000 ft

TAF: VOBZ 030800Z 0309/0318 21008KT 6000 SCT015 SCT025 TEMPO 0314/0318 FEW030TCU BKN080

Observacions i pronòstics meteorològics de més de 4000 aeroports (METAR i TAF).

Les estacions disponibles són els punts grocs i vermells al mapa.

Posi el ratolí al punt desitjat per veure el nom de l'estació.

Feu clic per veure les observacions i els pronòstics meteorològics.

Per canviar el mapa: feu clic els botons verds amb una creu de color negre per apropar; al botó verd amb un guió per allunyar la imatge; o en les fletxes verdes per a mapes adjacents.


METAR-TAF: